Back to Top

Language: 

My Weather Underground Personal Weather Station Historical Data with Graphs...

Delerius Weather Station Historical Data
Daily Summary for May 23, 2017 Units:  Metric    English   Both
« Previous Day
Next Day »
Daily Weekly Monthly Yearly Custom
  High: Low: Average:
Temperature: 22.7 °C 11.2 °C 17 °C
Dew Point: 11.8 °C 7.1 °C 9.9 °C
Humidity: 89 % 40 % 65 %
Wind Speed: 19.3 km/h 0 km/h 11.9 km/h
Wind Gust: 35.4 km/h - -
Wind:- - WNW
Pressure: 1022.9 hPa 1013.8 hPa -
Precipitation: 0 mm    
Historical Graphs
 
 
Tabular Data for May 23, 2017
Time Temperature Dew Point Pressure Wind Wind Speed Wind Gust Humidity Rainfall Rate (Hourly) solar Conditions
00:02 13.1 °C 8.9 °C 1013.8 hPa WNW 6.4 km/h 14.5 km/h 76 % 0 mm 0 W/m2
00:07 13 °C 9.1 °C 1013.8 hPa NW 6.4 km/h 12.9 km/h 77 % 0 mm 0 W/m2
00:12 12.9 °C 8.9 °C 1013.8 hPa NW 6.4 km/h 16.1 km/h 77 % 0 mm 0 W/m2
00:17 12.8 °C 8.9 °C 1013.8 hPa WNW 8 km/h 16.1 km/h 77 % 0 mm 0 W/m2
00:22 12.8 °C 8.9 °C 1013.8 hPa WNW 11.3 km/h 19.3 km/h 77 % 0 mm 0 W/m2
00:27 12.8 °C 8.9 °C 1013.8 hPa WNW 11.3 km/h 20.9 km/h 77 % 0 mm 0 W/m2
00:32 12.8 °C 8.9 °C 1013.8 hPa WNW 12.9 km/h 24.1 km/h 77 % 0 mm 0 W/m2
00:37 12.8 °C 8.9 °C 1013.8 hPa WNW 9.7 km/h 24.1 km/h 77 % 0 mm 0 W/m2
00:42 12.8 °C 8.9 °C 1013.8 hPa West 4.8 km/h 17.7 km/h 77 % 0 mm 0 W/m2
00:47 12.7 °C 8.9 °C 1013.8 hPa West 3.2 km/h 11.3 km/h 78 % 0 mm 0 W/m2
00:52 12.7 °C 8.9 °C 1013.8 hPa West 6.4 km/h 14.5 km/h 78 % 0 mm 0 W/m2
00:57 12.6 °C 8.9 °C 1013.8 hPa West 8 km/h 14.5 km/h 78 % 0 mm 0 W/m2
01:02 12.4 °C 8.7 °C 1013.8 hPa West 8 km/h 12.9 km/h 78 % 0 mm 0 W/m2
01:07 12.3 °C 8.8 °C 1013.8 hPa West 8 km/h 16.1 km/h 79 % 0 mm 0 W/m2
01:12 12.3 °C 8.9 °C 1013.8 hPa West 9.7 km/h 19.3 km/h 80 % 0 mm 0 W/m2
01:17 12.3 °C 8.9 °C 1013.8 hPa WNW 9.7 km/h 19.3 km/h 80 % 0 mm 0 W/m2
01:22 12.3 °C 8.9 °C 1013.8 hPa WNW 8 km/h 14.5 km/h 80 % 0 mm 0 W/m2
01:27 12.2 °C 8.8 °C 1013.8 hPa West 6.4 km/h 16.1 km/h 80 % 0 mm 0 W/m2
01:32 12.2 °C 8.8 °C 1013.8 hPa West 4.8 km/h 16.1 km/h 80 % 0 mm 0 W/m2
01:37 12.2 °C 9.1 °C 1014.1 hPa WNW 3.2 km/h 8 km/h 81 % 0 mm 0 W/m2
01:43 12.1 °C 8.9 °C 1014.1 hPa WNW 4.8 km/h 17.7 km/h 81 % 0 mm 0 W/m2
01:48 12.2 °C 9.2 °C 1014.1 hPa WNW 9.7 km/h 22.5 km/h 82 % 0 mm 0 W/m2
01:53 12.3 °C 9.3 °C 1014.1 hPa WNW 12.9 km/h 22.5 km/h 82 % 0 mm 0 W/m2
01:58 12.3 °C 9.3 °C 1014.1 hPa WNW 12.9 km/h 25.7 km/h 82 % 0 mm 0 W/m2
02:03 12.4 °C 9.2 °C 1014.1 hPa West 14.5 km/h 30.6 km/h 81 % 0 mm 0 W/m2
02:08 12.4 °C 9.2 °C 1014.1 hPa West 14.5 km/h 30.6 km/h 81 % 0 mm 0 W/m2
02:13 12.4 °C 9.4 °C 1014.4 hPa West 12.9 km/h 22.5 km/h 82 % 0 mm 0 W/m2
02:18 12.3 °C 9.3 °C 1014.4 hPa West 11.3 km/h 19.3 km/h 82 % 0 mm 0 W/m2
02:23 12.2 °C 9.2 °C 1014.4 hPa West 12.9 km/h 24.1 km/h 82 % 0 mm 0 W/m2
02:28 12.1 °C 9.3 °C 1014.4 hPa WNW 12.9 km/h 24.1 km/h 83 % 0 mm 0 W/m2
02:33 12.2 °C 9.4 °C 1014.8 hPa WNW 12.9 km/h 22.5 km/h 83 % 0 mm 0 W/m2
02:38 12.2 °C 9.4 °C 1015.1 hPa WNW 14.5 km/h 22.5 km/h 83 % 0 mm 0 W/m2
02:43 12.1 °C 9.5 °C 1015.1 hPa WNW 14.5 km/h 25.7 km/h 84 % 0 mm 0 W/m2
02:48 12.1 °C 9.5 °C 1015.1 hPa WNW 14.5 km/h 25.7 km/h 84 % 0 mm 0 W/m2
02:53 12.1 °C 9.5 °C 1015.1 hPa WNW 14.5 km/h 25.7 km/h 84 % 0 mm 0 W/m2
02:58 12.1 °C 9.5 °C 1015.1 hPa WNW 14.5 km/h 25.7 km/h 84 % 0 mm 0 W/m2
03:03 12.1 °C 9.5 °C 1015.1 hPa WNW 16.1 km/h 25.7 km/h 84 % 0 mm 0 W/m2
03:08 12.1 °C 9.5 °C 1015.1 hPa WNW 16.1 km/h 29 km/h 84 % 0 mm 0 W/m2
03:13 12.1 °C 9.5 °C 1015.1 hPa WNW 14.5 km/h 29 km/h 84 % 0 mm 0 W/m2
03:18 12 °C 9.4 °C 1015.1 hPa West 14.5 km/h 24.1 km/h 84 % 0 mm 0 W/m2
03:23 11.9 °C 9.3 °C 1015.1 hPa West 14.5 km/h 24.1 km/h 84 % 0 mm 0 W/m2
03:28 11.9 °C 9.4 °C 1015.5 hPa WNW 14.5 km/h 24.1 km/h 85 % 0 mm 0 W/m2
03:33 11.9 °C 9.4 °C 1015.1 hPa WNW 14.5 km/h 24.1 km/h 85 % 0 mm 0 W/m2
03:38 11.8 °C 9.3 °C 1015.1 hPa West 14.5 km/h 24.1 km/h 85 % 0 mm 0 W/m2
03:44 11.8 °C 9.6 °C 1015.1 hPa West 14.5 km/h 24.1 km/h 86 % 0 mm 0 W/m2
03:49 11.7 °C 9.4 °C 1015.1 hPa West 12.9 km/h 20.9 km/h 86 % 0 mm 0 W/m2
03:54 11.7 °C 9.4 °C 1015.1 hPa WNW 11.3 km/h 17.7 km/h 86 % 0 mm 0 W/m2
03:59 11.6 °C 9.3 °C 1015.1 hPa WNW 11.3 km/h 19.3 km/h 86 % 0 mm 0 W/m2
04:04 11.6 °C 9.5 °C 1015.1 hPa WNW 12.9 km/h 22.5 km/h 87 % 0 mm 0 W/m2
04:09 11.5 °C 9.4 °C 1015.1 hPa WNW 12.9 km/h 22.5 km/h 87 % 0 mm 0 W/m2
04:14 11.5 °C 9.4 °C 1015.1 hPa WNW 12.9 km/h 20.9 km/h 87 % 0 mm 0 W/m2
04:19 11.5 °C 9.4 °C 1015.5 hPa WNW 11.3 km/h 19.3 km/h 87 % 0 mm 0 W/m2
04:24 11.4 °C 9.3 °C 1015.5 hPa WNW 9.7 km/h 17.7 km/h 87 % 0 mm 0 W/m2
04:29 11.4 °C 9.3 °C 1015.5 hPa WNW 9.7 km/h 16.1 km/h 87 % 0 mm 0 W/m2
04:34 11.3 °C 9.2 °C 1015.5 hPa WNW 9.7 km/h 14.5 km/h 87 % 0 mm 0 W/m2
04:39 11.3 °C 9.4 °C 1015.5 hPa WNW 9.7 km/h 14.5 km/h 88 % 0 mm 0 W/m2
04:44 11.3 °C 9.4 °C 1015.8 hPa WNW 8 km/h 14.5 km/h 88 % 0 mm 0 W/m2
04:49 11.3 °C 9.4 °C 1015.8 hPa WNW 8 km/h 14.5 km/h 88 % 0 mm 0 W/m2
04:54 11.2 °C 9.3 °C 1015.8 hPa WNW 8 km/h 14.5 km/h 88 % 0 mm 5 W/m2
04:59 11.2 °C 9.3 °C 1015.8 hPa WNW 8 km/h 16.1 km/h 88 % 0 mm 7 W/m2
05:04 11.2 °C 9.3 °C 1015.8 hPa WNW 9.7 km/h 16.1 km/h 88 % 0 mm 11 W/m2
05:09 11.2 °C 9.3 °C 1015.8 hPa WNW 9.7 km/h 17.7 km/h 88 % 0 mm 14 W/m2
05:14 11.2 °C 9.3 °C 1015.8 hPa WNW 11.3 km/h 17.7 km/h 88 % 0 mm 19 W/m2
05:19 11.2 °C 9.4 °C 1015.8 hPa WNW 11.3 km/h 19.3 km/h 89 % 0 mm 25 W/m2
05:24 11.3 °C 9.6 °C 1016.1 hPa WNW 11.3 km/h 19.3 km/h 89 % 0 mm 32 W/m2
05:29 11.3 °C 9.6 °C 1016.1 hPa WNW 11.3 km/h 19.3 km/h 89 % 0 mm 37 W/m2
05:34 11.3 °C 9.6 °C 1016.1 hPa WNW 9.7 km/h 16.1 km/h 89 % 0 mm 42 W/m2
05:39 11.4 °C 9.7 °C 1016.1 hPa WNW 9.7 km/h 16.1 km/h 89 % 0 mm 49 W/m2
05:44 11.5 °C 9.7 °C 1016.1 hPa WNW 9.7 km/h 16.1 km/h 89 % 0 mm 47 W/m2
05:49 11.6 °C 9.8 °C 1016.1 hPa WNW 9.7 km/h 16.1 km/h 89 % 0 mm 46 W/m2
05:54 11.7 °C 9.8 °C 1016.1 hPa WNW 9.7 km/h 17.7 km/h 88 % 0 mm 47 W/m2
05:59 11.7 °C 9.8 °C 1016.5 hPa WNW 9.7 km/h 17.7 km/h 88 % 0 mm 65 W/m2
06:04 11.8 °C 10.1 °C 1016.5 hPa WNW 8 km/h 16.1 km/h 89 % 0 mm 90 W/m2
06:09 11.9 °C 10.2 °C 1016.5 hPa WNW 9.7 km/h 17.7 km/h 89 % 0 mm 125 W/m2
06:14 12.1 °C 10.2 °C 1016.5 hPa WNW 9.7 km/h 17.7 km/h 88 % 0 mm 107 W/m2
06:19 12.2 °C 10.3 °C 1016.5 hPa WNW 9.7 km/h 17.7 km/h 88 % 0 mm 84 W/m2
06:24 12.3 °C 10.4 °C 1016.5 hPa WNW 9.7 km/h 17.7 km/h 88 % 0 mm 83 W/m2
06:29 12.4 °C 10.3 °C 1016.5 hPa WNW 9.7 km/h 17.7 km/h 87 % 0 mm 84 W/m2
06:34 12.5 °C 10.4 °C 1016.8 hPa West 9.7 km/h 17.7 km/h 87 % 0 mm 77 W/m2
06:40 12.6 °C 10.3 °C 1016.8 hPa West 9.7 km/h 16.1 km/h 86 % 0 mm 76 W/m2
06:45 12.7 °C 10.4 °C 1016.8 hPa West 8 km/h 16.1 km/h 86 % 0 mm 93 W/m2
06:50 12.7 °C 10.4 °C 1016.8 hPa WNW 8 km/h 12.9 km/h 86 % 0 mm 102 W/m2
06:55 12.8 °C 10.5 °C 1016.8 hPa West 8 km/h 16.1 km/h 86 % 0 mm 102 W/m2
07:00 12.9 °C 10.6 °C 1017.2 hPa West 9.7 km/h 16.1 km/h 86 % 0 mm 107 W/m2
07:05 13.1 °C 10.6 °C 1017.2 hPa West 8 km/h 16.1 km/h 85 % 0 mm 116 W/m2
07:10 13.2 °C 10.7 °C 1017.2 hPa West 9.7 km/h 17.7 km/h 85 % 0 mm 123 W/m2
07:15 13.4 °C 10.8 °C 1017.2 hPa West 11.3 km/h 20.9 km/h 84 % 0 mm 199 W/m2
07:20 13.6 °C 10.8 °C 1017.2 hPa West 14.5 km/h 22.5 km/h 83 % 0 mm 322 W/m2
07:25 13.8 °C 10.9 °C 1017.2 hPa West 12.9 km/h 22.5 km/h 83 % 0 mm 276 W/m2
07:30 14.1 °C 11.1 °C 1017.2 hPa West 12.9 km/h 19.3 km/h 82 % 0 mm 330 W/m2
07:35 14.2 °C 11 °C 1017.2 hPa West 11.3 km/h 19.3 km/h 81 % 0 mm 186 W/m2
07:40 14.4 °C 11.2 °C 1017.2 hPa West 9.7 km/h 20.9 km/h 81 % 0 mm 334 W/m2
07:45 14.7 °C 11.3 °C 1017.2 hPa West 11.3 km/h 20.9 km/h 80 % 0 mm 144 W/m2
07:50 14.8 °C 11.2 °C 1017.5 hPa West 12.9 km/h 20.9 km/h 79 % 0 mm 202 W/m2
07:55 14.8 °C 11.2 °C 1017.5 hPa West 11.3 km/h 19.3 km/h 79 % 0 mm 441 W/m2
08:01 15 °C 11.6 °C 1017.5 hPa West 9.7 km/h 17.7 km/h 80 % 0 mm 417 W/m2
08:02 15.1 °C 11.5 °C 1017.5 hPa West 9.7 km/h 17.7 km/h 79 % 0 mm 413 W/m2
08:07 15.5 °C 11.7 °C 1017.5 hPa West 11.3 km/h 17.7 km/h 78 % 0 mm 436 W/m2
08:12 15.7 °C 11.7 °C 1017.5 hPa West 11.3 km/h 17.7 km/h 77 % 0 mm 392 W/m2
08:17 15.9 °C 11.4 °C 1017.5 hPa West 11.3 km/h 17.7 km/h 75 % 0 mm 459 W/m2
08:22 16.3 °C 11.8 °C 1017.5 hPa West 9.7 km/h 17.7 km/h 75 % 0 mm 436 W/m2
08:27 16.4 °C 11.3 °C 1017.8 hPa West 11.3 km/h 20.9 km/h 72 % 0 mm 482 W/m2
08:32 16.6 °C 11.3 °C 1017.8 hPa West 12.9 km/h 20.9 km/h 71 % 0 mm 496 W/m2
08:37 16.6 °C 11.1 °C 1017.8 hPa West 12.9 km/h 19.3 km/h 70 % 0 mm 483 W/m2
08:42 16.8 °C 11.1 °C 1017.8 hPa West 12.9 km/h 20.9 km/h 69 % 0 mm 513 W/m2
08:47 17.1 °C 11.4 °C 1017.8 hPa West 11.3 km/h 20.9 km/h 69 % 0 mm 533 W/m2
08:52 17.2 °C 11 °C 1017.8 hPa West 11.3 km/h 20.9 km/h 67 % 0 mm 132 W/m2
08:57 17.1 °C 11.4 °C 1017.8 hPa West 11.3 km/h 20.9 km/h 69 % 0 mm 132 W/m2
09:02 17.2 °C 11.2 °C 1017.8 hPa West 11.3 km/h 20.9 km/h 68 % 0 mm 132 W/m2
09:07 17.3 °C 10.9 °C 1017.8 hPa WNW 12.9 km/h 22.5 km/h 66 % 0 mm 654 W/m2
09:12 17.3 °C 11.1 °C 1018.2 hPa West 14.5 km/h 22.5 km/h 67 % 0 mm 128 W/m2
09:17 17.4 °C 11.2 °C 1017.8 hPa West 11.3 km/h 19.3 km/h 67 % 0 mm 729 W/m2
09:22 17.5 °C 11.3 °C 1018.2 hPa West 9.7 km/h 16.1 km/h 67 % 0 mm 221 W/m2
09:27 17.6 °C 11.6 °C 1018.2 hPa West 11.3 km/h 17.7 km/h 68 % 0 mm 751 W/m2
09:32 17.7 °C 11.3 °C 1018.2 hPa West 12.9 km/h 25.7 km/h 66 % 0 mm 788 W/m2
09:37 17.8 °C 11.3 °C 1018.2 hPa West 14.5 km/h 25.7 km/h 66 % 0 mm 807 W/m2
09:43 17.9 °C 11.2 °C 1018.2 hPa West 16.1 km/h 25.7 km/h 65 % 0 mm 807 W/m2
09:48 17.8 °C 10.9 °C 1018.2 hPa West 16.1 km/h 24.1 km/h 64 % 0 mm 285 W/m2
09:53 17.8 °C 11.1 °C 1018.2 hPa West 16.1 km/h 24.1 km/h 65 % 0 mm 844 W/m2
09:58 18.1 °C 11.4 °C 1018.2 hPa West 14.5 km/h 20.9 km/h 65 % 0 mm 791 W/m2
10:03 18.4 °C 11.2 °C 1018.2 hPa West 14.5 km/h 24.1 km/h 63 % 0 mm 807 W/m2
10:05 18.4 °C 11 °C 1018.2 hPa West 14.5 km/h 25.7 km/h 62 % 0 mm 285 W/m2
10:10 18.5 °C 11.3 °C 1018.2 hPa WNW 12.9 km/h 25.7 km/h 63 % 0 mm 278 W/m2
10:15 18.5 °C 11.3 °C 1018.5 hPa WNW 12.9 km/h 22.5 km/h 63 % 0 mm 290 W/m2
10:20 18.4 °C 11.2 °C 1018.5 hPa WNW 12.9 km/h 24.1 km/h 63 % 0 mm 359 W/m2
10:25 18.4 °C 11.2 °C 1018.5 hPa WNW 12.9 km/h 24.1 km/h 63 % 0 mm 264 W/m2
10:30 18.3 °C 11.1 °C 1018.5 hPa West 12.9 km/h 25.7 km/h 63 % 0 mm 264 W/m2
10:35 18.1 °C 11.2 °C 1018.5 hPa West 14.5 km/h 25.7 km/h 64 % 0 mm 418 W/m2
10:40 18.2 °C 11.5 °C 1018.5 hPa West 12.9 km/h 22.5 km/h 65 % 0 mm 195 W/m2
10:45 18.3 °C 11.1 °C 1018.8 hPa WNW 12.9 km/h 29 km/h 63 % 0 mm 861 W/m2
10:50 18.6 °C 11.4 °C 1018.8 hPa WNW 16.1 km/h 29 km/h 63 % 0 mm 250 W/m2
10:55 18.6 °C 10.9 °C 1018.8 hPa West 16.1 km/h 30.6 km/h 61 % 0 mm 160 W/m2
11:00 18.7 °C 11 °C 1018.8 hPa WNW 16.1 km/h 30.6 km/h 61 % 0 mm 865 W/m2
11:06 19.2 °C 11.2 °C 1018.8 hPa WNW 17.7 km/h 33.8 km/h 60 % 0 mm 991 W/m2
11:11 19.4 °C 11.4 °C 1018.8 hPa WNW 14.5 km/h 33.8 km/h 60 % 0 mm 951 W/m2
11:16 19.6 °C 10.8 °C 1019.2 hPa WNW 14.5 km/h 33.8 km/h 57 % 0 mm 888 W/m2
11:21 19.7 °C 10.9 °C 1018.8 hPa WNW 16.1 km/h 33.8 km/h 57 % 0 mm 882 W/m2
11:26 19.8 °C 10.8 °C 1018.8 hPa West 17.7 km/h 35.4 km/h 56 % 0 mm 805 W/m2
11:31 19.8 °C 10.8 °C 1018.8 hPa West 17.7 km/h 35.4 km/h 56 % 0 mm 896 W/m2
11:36 20.1 °C 11.1 °C 1018.8 hPa West 14.5 km/h 32.2 km/h 56 % 0 mm 991 W/m2
11:41 20.2 °C 10.9 °C 1018.8 hPa WNW 14.5 km/h 25.7 km/h 55 % 0 mm 984 W/m2
11:46 20.3 °C 10.7 °C 1018.8 hPa West 16.1 km/h 29 km/h 54 % 0 mm 1044 W/m2
11:51 20.1 °C 10.5 °C 1018.8 hPa West 17.7 km/h 29 km/h 54 % 0 mm 1005 W/m2
11:56 20.3 °C 10.9 °C 1018.8 hPa West 16.1 km/h 29 km/h 55 % 0 mm 1056 W/m2
12:01 20.1 °C 10.5 °C 1018.8 hPa West 16.1 km/h 25.7 km/h 54 % 0 mm 214 W/m2
12:06 20.2 °C 10.9 °C 1018.8 hPa West 14.5 km/h 25.7 km/h 55 % 0 mm 990 W/m2
12:11 20.3 °C 10.7 °C 1018.8 hPa West 14.5 km/h 29 km/h 54 % 0 mm 1037 W/m2
12:16 20.2 °C 10.9 °C 1018.8 hPa West 16.1 km/h 30.6 km/h 55 % 0 mm 904 W/m2
12:21 20.5 °C 10.9 °C 1018.8 hPa West 16.1 km/h 30.6 km/h 54 % 0 mm 933 W/m2
12:26 20.8 °C 11.2 °C 1018.8 hPa WNW 14.5 km/h 30.6 km/h 54 % 0 mm 986 W/m2
12:31 21 °C 11.1 °C 1018.8 hPa WNW 14.5 km/h 30.6 km/h 53 % 0 mm 1032 W/m2
12:36 20.9 °C 10.9 °C 1018.8 hPa WNW 12.9 km/h 30.6 km/h 53 % 0 mm 320 W/m2
12:41 20.8 °C 10.6 °C 1019.2 hPa WNW 14.5 km/h 32.2 km/h 52 % 0 mm 246 W/m2
12:46 20.7 °C 10.5 °C 1019.2 hPa West 16.1 km/h 32.2 km/h 52 % 0 mm 1021 W/m2
12:51 20.7 °C 10.8 °C 1019.2 hPa West 16.1 km/h 29 km/h 53 % 0 mm 972 W/m2
12:56 21.1 °C 11.2 °C 1019.2 hPa WNW 14.5 km/h 24.1 km/h 53 % 0 mm 988 W/m2
13:01 21.3 °C 11.3 °C 1019.2 hPa NW 14.5 km/h 25.7 km/h 53 % 0 mm 977 W/m2
13:06 21.4 °C 11.1 °C 1019.2 hPa NW 14.5 km/h 30.6 km/h 52 % 0 mm 1007 W/m2
13:11 21.4 °C 10.2 °C 1019.2 hPa WNW 12.9 km/h 30.6 km/h 49 % 0 mm 942 W/m2
13:16 21.4 °C 10.6 °C 1019.2 hPa WNW 11.3 km/h 24.1 km/h 50 % 0 mm 956 W/m2
13:21 21.4 °C 11.1 °C 1019.2 hPa West 12.9 km/h 24.1 km/h 52 % 0 mm 967 W/m2
13:26 21.6 °C 11.3 °C 1019.2 hPa WNW 14.5 km/h 24.1 km/h 52 % 0 mm 951 W/m2
13:27 21.7 °C 10.8 °C 1019.2 hPa WNW 14.5 km/h 24.1 km/h 50 % 0 mm 981 W/m2
13:32 21.9 °C 11 °C 1019.2 hPa WNW 12.9 km/h 24.1 km/h 50 % 0 mm 185 W/m2
13:37 21.9 °C 11 °C 1019.2 hPa NW 12.9 km/h 22.5 km/h 50 % 0 mm 912 W/m2
13:42 22.1 °C 10.9 °C 1019.2 hPa WNW 14.5 km/h 29 km/h 49 % 0 mm 889 W/m2
13:47 21.8 °C 10.9 °C 1019.2 hPa WNW 14.5 km/h 29 km/h 50 % 0 mm 937 W/m2
13:52 21.8 °C 10.6 °C 1019.2 hPa WNW 12.9 km/h 29 km/h 49 % 0 mm 949 W/m2
13:58 21.9 °C 10.7 °C 1019.2 hPa WNW 14.5 km/h 32.2 km/h 49 % 0 mm 907 W/m2
14:03 22.2 °C 10.3 °C 1019.5 hPa WNW 16.1 km/h 32.2 km/h 47 % 0 mm 863 W/m2
14:08 22.3 °C 10.4 °C 1019.5 hPa WNW 14.5 km/h 29 km/h 47 % 0 mm 835 W/m2
14:13 22.2 °C 10.7 °C 1019.5 hPa WNW 14.5 km/h 29 km/h 48 % 0 mm 828 W/m2
14:18 22.2 °C 10.3 °C 1019.2 hPa WNW 14.5 km/h 25.7 km/h 47 % 0 mm 795 W/m2
14:19 22.2 °C 10.3 °C 1019.5 hPa West 14.5 km/h 25.7 km/h 47 % 0 mm 851 W/m2
14:24 22.3 °C 10.4 °C 1019.5 hPa WNW 14.5 km/h 25.7 km/h 47 % 0 mm 846 W/m2
14:29 22.3 °C 11.1 °C 1019.5 hPa WNW 14.5 km/h 25.7 km/h 49 % 0 mm 846 W/m2
14:34 22.4 °C 11.2 °C 1019.5 hPa WNW 12.9 km/h 24.1 km/h 49 % 0 mm 881 W/m2
14:39 22.3 °C 10.8 °C 1019.5 hPa West 14.5 km/h 25.7 km/h 48 % 0 mm 770 W/m2
14:44 22.3 °C 10.8 °C 1019.5 hPa WNW 16.1 km/h 30.6 km/h 48 % 0 mm 700 W/m2
14:50 22.2 °C 11 °C 1019.5 hPa WNW 14.5 km/h 30.6 km/h 49 % 0 mm 654 W/m2
14:55 22.1 °C 10.6 °C 1019.5 hPa WNW 14.5 km/h 29 km/h 48 % 0 mm 577 W/m2
15:00 21.9 °C 10.7 °C 1019.5 hPa WNW 14.5 km/h 25.7 km/h 49 % 0 mm 693 W/m2
15:05 22.1 °C 11.2 °C 1019.5 hPa WNW 14.5 km/h 25.7 km/h 50 % 0 mm 824 W/m2
15:10 22.3 °C 11.1 °C 1019.5 hPa WNW 14.5 km/h 30.6 km/h 49 % 0 mm 731 W/m2
15:15 22.2 °C 11.3 °C 1019.5 hPa WNW 14.5 km/h 30.6 km/h 50 % 0 mm 731 W/m2
15:20 22.1 °C 10.6 °C 1019.5 hPa West 12.9 km/h 24.1 km/h 48 % 0 mm 763 W/m2
15:25 22.3 °C 10.4 °C 1019.5 hPa West 14.5 km/h 29 km/h 47 % 0 mm 779 W/m2
15:30 22.3 °C 10.4 °C 1019.5 hPa West 16.1 km/h 30.6 km/h 47 % 0 mm 691 W/m2
15:35 22.3 °C 10.1 °C 1019.5 hPa West 12.9 km/h 30.6 km/h 46 % 0 mm 744 W/m2
15:40 22.5 °C 10.6 °C 1019.5 hPa WNW 11.3 km/h 22.5 km/h 47 % 0 mm 721 W/m2
15:45 22.7 °C 10.8 °C 1019.5 hPa WNW 12.9 km/h 25.7 km/h 47 % 0 mm 645 W/m2
15:50 22.6 °C 10.4 °C 1019.5 hPa WNW 14.5 km/h 29 km/h 46 % 0 mm 708 W/m2
15:55 22.6 °C 10.4 °C 1019.5 hPa WNW 16.1 km/h 29 km/h 46 % 0 mm 737 W/m2
16:00 22.6 °C 10.1 °C 1019.5 hPa WNW 17.7 km/h 30.6 km/h 45 % 0 mm 654 W/m2
16:01 22.5 °C 9.9 °C 1019.5 hPa WNW 17.7 km/h 30.6 km/h 45 % 0 mm 654 W/m2
16:06 22.4 °C 9.9 °C 1019.5 hPa WNW 17.7 km/h 32.2 km/h 45 % 0 mm 629 W/m2
16:11 22.4 °C 10.2 °C 1019.5 hPa WNW 16.1 km/h 32.2 km/h 46 % 0 mm 677 W/m2
16:16 22.4 °C 9.9 °C 1019.5 hPa WNW 12.9 km/h 22.5 km/h 45 % 0 mm 675 W/m2
16:21 22.4 °C 9.9 °C 1019.5 hPa WNW 14.5 km/h 29 km/h 45 % 0 mm 635 W/m2
16:26 22.3 °C 9.1 °C 1019.5 hPa WNW 16.1 km/h 29 km/h 43 % 0 mm 640 W/m2
16:31 22.3 °C 8.8 °C 1019.9 hPa WNW 17.7 km/h 32.2 km/h 42 % 0 mm 626 W/m2
16:36 22.2 °C 8.7 °C 1019.5 hPa WNW 17.7 km/h 32.2 km/h 42 % 0 mm 608 W/m2
16:41 22.2 °C 8.7 °C 1019.9 hPa WNW 16.1 km/h 29 km/h 42 % 0 mm 594 W/m2
16:46 22.2 °C 8.7 °C 1019.5 hPa NW 16.1 km/h 29 km/h 42 % 0 mm 587 W/m2
16:48 22.2 °C 8.3 °C 1019.5 hPa WNW 16.1 km/h 29 km/h 41 % 0 mm 578 W/m2
16:53 22.3 °C 8.4 °C 1019.9 hPa WNW 14.5 km/h 29 km/h 41 % 0 mm 571 W/m2
16:58 22.4 °C 8.8 °C 1019.9 hPa WNW 16.1 km/h 30.6 km/h 42 % 0 mm 555 W/m2
17:03 22.4 °C 8.1 °C 1019.9 hPa WNW 17.7 km/h 30.6 km/h 40 % 0 mm 533 W/m2
17:08 22.3 °C 8.4 °C 1019.9 hPa West 17.7 km/h 25.7 km/h 41 % 0 mm 520 W/m2
17:13 22.2 °C 8.7 °C 1019.9 hPa West 16.1 km/h 25.7 km/h 42 % 0 mm 513 W/m2
17:18 22.2 °C 8.7 °C 1019.9 hPa West 14.5 km/h 29 km/h 42 % 0 mm 503 W/m2
17:23 22.2 °C 8.7 °C 1019.9 hPa West 16.1 km/h 29 km/h 42 % 0 mm 483 W/m2
17:28 22.2 °C 9 °C 1019.9 hPa WNW 17.7 km/h 29 km/h 43 % 0 mm 450 W/m2
17:33 22.2 °C 9 °C 1019.9 hPa WNW 17.7 km/h 29 km/h 43 % 0 mm 448 W/m2
17:38 22.1 °C 8.9 °C 1019.9 hPa WNW 17.7 km/h 35.4 km/h 43 % 0 mm 446 W/m2
17:43 22 °C 9.2 °C 1020.2 hPa WNW 17.7 km/h 35.4 km/h 44 % 0 mm 431 W/m2
17:48 21.9 °C 9.1 °C 1020.2 hPa WNW 19.3 km/h 29 km/h 44 % 0 mm 415 W/m2
17:53 21.9 °C 9.1 °C 1020.2 hPa WNW 19.3 km/h 29 km/h 44 % 0 mm 404 W/m2
17:58 21.8 °C 9 °C 1020.2 hPa WNW 17.7 km/h 30.6 km/h 44 % 0 mm 369 W/m2
18:03 21.8 °C 9 °C 1020.2 hPa WNW 16.1 km/h 30.6 km/h 44 % 0 mm 381 W/m2
18:08 21.8 °C 9 °C 1020.2 hPa WNW 16.1 km/h 30.6 km/h 44 % 0 mm 373 W/m2
18:13 21.7 °C 8.9 °C 1020.2 hPa WNW 17.7 km/h 30.6 km/h 44 % 0 mm 338 W/m2
18:18 21.6 °C 8.1 °C 1020.2 hPa WNW 17.7 km/h 29 km/h 42 % 0 mm 345 W/m2
18:23 21.6 °C 8.5 °C 1020.2 hPa WNW 16.1 km/h 29 km/h 43 % 0 mm 304 W/m2
18:28 21.6 °C 8.5 °C 1020.2 hPa WNW 14.5 km/h 25.7 km/h 43 % 0 mm 272 W/m2
18:33 21.6 °C 8.5 °C 1020.5 hPa WNW 12.9 km/h 25.7 km/h 43 % 0 mm 272 W/m2
18:38 21.5 °C 8.7 °C 1020.5 hPa WNW 12.9 km/h 20.9 km/h 44 % 0 mm 269 W/m2
18:43 21.4 °C 8.9 °C 1020.5 hPa WNW 12.9 km/h 20.9 km/h 45 % 0 mm 243 W/m2
18:48 21.3 °C 8.6 °C 1020.5 hPa WNW 14.5 km/h 20.9 km/h 44 % 0 mm 216 W/m2
18:53 21.1 °C 8.7 °C 1020.5 hPa WNW 14.5 km/h 20.9 km/h 45 % 0 mm 186 W/m2
18:58 20.9 °C 8.8 °C 1020.5 hPa WNW 14.5 km/h 20.9 km/h 46 % 0 mm 225 W/m2
19:04 20.7 °C 8.7 °C 1020.5 hPa WNW 14.5 km/h 25.7 km/h 46 % 0 mm 142 W/m2
19:09 20.6 °C 8.2 °C 1020.5 hPa WNW 16.1 km/h 25.7 km/h 45 % 0 mm 214 W/m2
19:14 20.4 °C 8.1 °C 1020.9 hPa WNW 16.1 km/h 30.6 km/h 45 % 0 mm 186 W/m2
19:19 20.2 °C 7.6 °C 1020.9 hPa WNW 17.7 km/h 30.6 km/h 44 % 0 mm 130 W/m2
19:24 20 °C 8 °C 1020.9 hPa WNW 16.1 km/h 29 km/h 46 % 0 mm 88 W/m2
19:29 19.8 °C 8.4 °C 1020.9 hPa WNW 16.1 km/h 24.1 km/h 48 % 0 mm 111 W/m2
19:34 19.6 °C 8.3 °C 1020.9 hPa WNW 16.1 km/h 24.1 km/h 48 % 0 mm 121 W/m2
19:39 19.4 °C 8.1 °C 1020.9 hPa WNW 16.1 km/h 24.1 km/h 48 % 0 mm 162 W/m2
19:44 19.4 °C 7.8 °C 1020.9 hPa WNW 16.1 km/h 29 km/h 47 % 0 mm 155 W/m2
19:49 19.3 °C 8 °C 1020.9 hPa WNW 16.1 km/h 29 km/h 48 % 0 mm 116 W/m2
19:54 19.1 °C 7.8 °C 1021.2 hPa WNW 16.1 km/h 25.7 km/h 48 % 0 mm 60 W/m2
19:59 18.8 °C 7.6 °C 1021.2 hPa WNW 14.5 km/h 24.1 km/h 48 % 0 mm 40 W/m2
20:04 18.6 °C 7.4 °C 1021.2 hPa WNW 14.5 km/h 25.7 km/h 48 % 0 mm 32 W/m2
20:09 18.3 °C 7.1 °C 1021.6 hPa WNW 16.1 km/h 25.7 km/h 48 % 0 mm 30 W/m2
20:14 18.2 °C 7.3 °C 1021.6 hPa WNW 12.9 km/h 22.5 km/h 49 % 0 mm 28 W/m2
20:19 18 °C 7.4 °C 1021.6 hPa WNW 11.3 km/h 17.7 km/h 50 % 0 mm 26 W/m2
20:20 17.9 °C 7.3 °C 1021.6 hPa WNW 11.3 km/h 17.7 km/h 50 % 0 mm 26 W/m2
20:25 17.8 °C 7.5 °C 1021.6 hPa WNW 9.7 km/h 17.7 km/h 51 % 0 mm 28 W/m2
20:30 17.7 °C 7.7 °C 1021.6 hPa WNW 6.4 km/h 17.7 km/h 52 % 0 mm 30 W/m2
20:35 17.6 °C 8.2 °C 1021.9 hPa WNW 3.2 km/h 12.9 km/h 54 % 0 mm 28 W/m2
20:40 17.4 °C 8 °C 1021.9 hPa WNW 1.6 km/h 8 km/h 54 % 0 mm 26 W/m2
20:45 17.3 °C 7.9 °C 1021.9 hPa West 1.6 km/h 11.3 km/h 54 % 0 mm 25 W/m2
20:50 17.2 °C 8.1 °C 1021.9 hPa West 3.2 km/h 14.5 km/h 55 % 0 mm 18 W/m2
20:55 17.1 °C 8.2 °C 1022.2 hPa West 3.2 km/h 14.5 km/h 56 % 0 mm 14 W/m2
21:00 17 °C 8.4 °C 1022.2 hPa WNW 3.2 km/h 14.5 km/h 57 % 0 mm 12 W/m2
21:06 16.9 °C 8.3 °C 1022.2 hPa West 4.8 km/h 14.5 km/h 57 % 0 mm 11 W/m2
21:11 16.9 °C 8.8 °C 1022.6 hPa WSW 3.2 km/h 11.3 km/h 59 % 0 mm 9 W/m2
21:16 16.8 °C 9 °C 1022.6 hPa SW 1.6 km/h 8 km/h 60 % 0 mm 7 W/m2
21:21 16.7 °C 9.1 °C 1022.6 hPa Calm   1.6 km/h 61 % 0 mm 0 W/m2
21:26 16.6 °C 9.3 °C 1022.6 hPa Calm     62 % 0 mm 0 W/m2
21:31 16.4 °C 9.3 °C 1022.6 hPa Calm   3.2 km/h 63 % 0 mm 0 W/m2
21:36 16.3 °C 9.2 °C 1022.6 hPa WSW 1.6 km/h 6.4 km/h 63 % 0 mm 0 W/m2
21:41 16.2 °C 9.6 °C 1022.6 hPa West 3.2 km/h 9.7 km/h 65 % 0 mm 0 W/m2
21:46 16.2 °C 9.6 °C 1022.6 hPa WNW 4.8 km/h 9.7 km/h 65 % 0 mm 0 W/m2
21:51 16.1 °C 9.7 °C 1022.6 hPa WNW 6.4 km/h 11.3 km/h 66 % 0 mm 0 W/m2
21:56 15.9 °C 9.8 °C 1022.6 hPa WNW 6.4 km/h 11.3 km/h 67 % 0 mm 0 W/m2
22:01 15.6 °C 9.7 °C 1022.6 hPa WNW 6.4 km/h 11.3 km/h 68 % 0 mm 0 W/m2
22:06 15.3 °C 9.8 °C 1022.9 hPa WNW 9.7 km/h 17.7 km/h 70 % 0 mm 0 W/m2
22:11 15.2 °C 10 °C 1022.9 hPa West 11.3 km/h 17.7 km/h 71 % 0 mm 0 W/m2
22:16 15.1 °C 10.1 °C 1022.9 hPa West 11.3 km/h 17.7 km/h 72 % 0 mm 0 W/m2
22:21 15.1 °C 10.3 °C 1022.9 hPa West 9.7 km/h 16.1 km/h 73 % 0 mm 0 W/m2
22:26 15 °C 10.4 °C 1022.6 hPa West 9.7 km/h 14.5 km/h 74 % 0 mm 0 W/m2
22:31 14.9 °C 10.3 °C 1022.6 hPa WNW 8 km/h 12.9 km/h 74 % 0 mm 0 W/m2
22:36 14.8 °C 10.2 °C 1022.6 hPa WNW 8 km/h 12.9 km/h 74 % 0 mm 0 W/m2
22:41 14.8 °C 10.4 °C 1022.6 hPa WNW 6.4 km/h 12.9 km/h 75 % 0 mm 0 W/m2
22:46 14.7 °C 10.3 °C 1022.6 hPa WNW 3.2 km/h 11.3 km/h 75 % 0 mm 0 W/m2
22:51 14.6 °C 10.2 °C 1022.6 hPa WNW 1.6 km/h 8 km/h 75 % 0 mm 0 W/m2
22:56 14.5 °C 10.3 °C 1022.6 hPa NW 1.6 km/h 11.3 km/h 76 % 0 mm 0 W/m2
23:01 14.4 °C 10.2 °C 1022.6 hPa NW 3.2 km/h 11.3 km/h 76 % 0 mm 0 W/m2
23:06 14.4 °C 10.4 °C 1022.6 hPa NW 4.8 km/h 9.7 km/h 77 % 0 mm 0 W/m2
23:11 14.4 °C 10.4 °C 1022.6 hPa WNW 4.8 km/h 9.7 km/h 77 % 0 mm 0 W/m2
23:16 14.3 °C 10.5 °C 1022.6 hPa WNW 6.4 km/h 9.7 km/h 78 % 0 mm 0 W/m2
23:21 14.3 °C 10.5 °C 1022.6 hPa West 6.4 km/h 11.3 km/h 78 % 0 mm 0 W/m2
23:26 14.1 °C 10.5 °C 1022.6 hPa West 6.4 km/h 11.3 km/h 79 % 0 mm 0 W/m2
23:31 14.1 °C 10.5 °C 1022.6 hPa West 6.4 km/h 9.7 km/h 79 % 0 mm 0 W/m2
23:36 13.9 °C 10.5 °C 1022.6 hPa WNW 4.8 km/h 9.7 km/h 80 % 0 mm 0 W/m2
23:41 13.9 °C 10.7 °C 1022.6 hPa WNW 8 km/h 14.5 km/h 81 % 0 mm 0 W/m2
23:47 14 °C 10.8 °C 1022.6 hPa WNW 9.7 km/h 14.5 km/h 81 % 0 mm 0 W/m2
23:52 14.1 °C 10.9 °C 1022.6 hPa WNW 8 km/h 14.5 km/h 81 % 0 mm 0 W/m2
23:57 14.1 °C 10.9 °C 1022.6 hPa WNW 6.4 km/h 14.5 km/h 81 % 0 mm 0 W/m2
Delerius-Weather
Compliments of Weather Underground - 2.25 mb

Data updates at regular intervals.